createdAt,value
2022-09-23T00:00:11.517Z,9.23
2022-09-23T00:00:44.603Z,9.15
2022-09-23T00:01:16.631Z,9.16
2022-09-23T00:01:48.913Z,9.08
2022-09-23T00:02:20.841Z,9.08
2022-09-23T00:02:52.802Z,9.17
2022-09-23T00:03:24.874Z,9.04
2022-09-23T00:03:59.107Z,9.05
2022-09-23T00:04:31.186Z,9.00
2022-09-23T00:05:03.285Z,9.13
2022-09-23T00:05:35.666Z,9.05
2022-09-23T00:06:13.624Z,9.01
2022-09-23T00:06:45.717Z,8.99
2022-09-23T00:07:17.978Z,8.96
2022-09-23T00:07:49.792Z,8.94
2022-09-23T00:08:22.807Z,8.94
2022-09-23T00:08:55.005Z,8.88
2022-09-23T00:09:27.797Z,9.02
2022-09-23T00:09:59.721Z,8.96
2022-09-23T00:10:31.932Z,8.97
2022-09-23T00:11:06.484Z,8.93
2022-09-23T00:11:38.469Z,8.85
2022-09-23T00:12:10.368Z,8.88
2022-09-23T00:12:42.310Z,8.88
2022-09-23T00:13:14.113Z,8.88
2022-09-23T00:13:48.918Z,8.91
2022-09-23T00:14:21.690Z,8.87
2022-09-23T00:14:53.557Z,8.85
2022-09-23T00:15:26.603Z,8.83
2022-09-23T00:16:02.848Z,8.80
2022-09-23T00:16:35.267Z,8.79
2022-09-23T00:17:07.324Z,8.83
2022-09-23T00:17:40.623Z,8.84
2022-09-23T00:18:12.470Z,9.01
2022-09-23T00:18:44.487Z,8.89
2022-09-23T00:19:16.352Z,9.03
2022-09-23T00:19:48.369Z,8.92
2022-09-23T00:20:20.385Z,8.89
2022-09-23T00:20:53.044Z,8.88
2022-09-23T00:21:25.260Z,8.83
2022-09-23T00:21:57.230Z,8.84
2022-09-23T00:22:29.107Z,8.85
2022-09-23T00:23:01.440Z,9.00
2022-09-23T00:23:33.288Z,8.92
2022-09-23T00:24:05.352Z,8.92
2022-09-23T00:24:37.510Z,9.05
2022-09-23T00:25:11.222Z,8.92
2022-09-23T00:25:42.991Z,8.84
2022-09-23T00:26:16.739Z,8.82
2022-09-23T00:26:48.970Z,8.78
2022-09-23T00:27:21.557Z,8.82
2022-09-23T00:27:54.175Z,8.80
2022-09-23T00:28:26.189Z,8.78
2022-09-23T00:28:58.427Z,8.73
2022-09-23T00:29:31.500Z,8.76
2022-09-23T00:30:08.790Z,8.85
2022-09-23T00:30:42.012Z,8.76
2022-09-23T00:31:20.030Z,8.78
2022-09-23T00:31:51.900Z,8.76
2022-09-23T00:32:23.766Z,8.78
2022-09-23T00:32:56.938Z,8.81
2022-09-23T00:33:29.869Z,8.76
2022-09-23T00:34:01.999Z,8.78
2022-09-23T00:34:33.991Z,8.74
2022-09-23T00:35:06.360Z,8.76
2022-09-23T00:35:38.709Z,8.80
2022-09-23T00:36:15.653Z,8.85
2022-09-23T00:36:47.539Z,8.72
2022-09-23T00:37:20.079Z,8.74
2022-09-23T00:37:52.272Z,8.71
2022-09-23T00:38:24.184Z,8.71
2022-09-23T00:39:14.470Z,8.83
2022-09-23T00:39:46.684Z,8.69
2022-09-23T00:40:18.813Z,8.82
2022-09-23T00:40:51.227Z,8.69
2022-09-23T00:41:23.556Z,8.65
2022-09-23T00:41:56.135Z,8.65
2022-09-23T00:42:27.988Z,8.65
2022-09-23T00:43:00.185Z,8.59
2022-09-23T00:43:48.909Z,8.65
2022-09-23T00:44:50.110Z,8.81
2022-09-23T00:45:22.351Z,8.65
2022-09-23T00:45:54.976Z,8.68
2022-09-23T00:46:36.958Z,8.60
2022-09-23T00:47:44.128Z,8.53
2022-09-23T00:48:20.475Z,8.64
2022-09-23T00:49:00.233Z,8.41
2022-09-23T00:49:32.131Z,8.42
2022-09-23T00:50:15.051Z,8.46
2022-09-23T00:50:54.263Z,8.50
2022-09-23T00:51:33.575Z,8.72
2022-09-23T00:52:14.569Z,8.65
2022-09-23T00:52:49.164Z,8.51
2022-09-23T00:53:26.585Z,8.65
2022-09-23T00:53:58.857Z,8.49
2022-09-23T00:54:31.101Z,8.53
2022-09-23T00:55:07.650Z,8.50
2022-09-23T00:55:46.062Z,8.53
2022-09-23T00:56:20.165Z,8.42
2022-09-23T00:56:52.255Z,8.44
2022-09-23T00:57:26.137Z,8.51
2022-09-23T00:58:01.224Z,8.49
2022-09-23T00:58:36.150Z,8.42
2022-09-23T00:59:10.782Z,8.42
2022-09-23T00:59:44.250Z,8.39
2022-09-23T01:00:16.194Z,8.28
2022-09-23T01:00:48.125Z,8.28
2022-09-23T01:01:21.449Z,8.32
2022-09-23T01:01:56.172Z,8.27
2022-09-23T01:02:28.401Z,8.29
2022-09-23T01:03:01.755Z,8.40
2022-09-23T01:03:34.312Z,8.38
2022-09-23T01:04:07.946Z,8.34
2022-09-23T01:04:40.751Z,8.35
2022-09-23T01:05:13.813Z,8.48
2022-09-23T01:05:47.148Z,8.43
2022-09-23T01:06:19.218Z,8.41
2022-09-23T01:06:51.353Z,8.53
2022-09-23T01:07:23.354Z,8.47
2022-09-23T01:07:57.582Z,8.37
2022-09-23T01:08:29.677Z,8.23
2022-09-23T01:09:01.856Z,8.32
2022-09-23T01:09:34.283Z,8.23
2022-09-23T01:10:08.040Z,8.15
2022-09-23T01:10:52.091Z,8.17
2022-09-23T01:11:47.374Z,8.19
2022-09-23T01:12:34.191Z,8.14
2022-09-23T01:13:15.413Z,8.12
2022-09-23T01:13:47.364Z,8.02
2022-09-23T01:14:37.528Z,8.12
2022-09-23T01:15:32.521Z,8.19
2022-09-23T01:16:23.408Z,8.35
2022-09-23T01:17:09.437Z,8.39
2022-09-23T01:18:08.358Z,8.55
2022-09-23T01:19:09.418Z,8.28
2022-09-23T01:20:15.442Z,8.35
2022-09-23T01:21:16.738Z,8.49
2022-09-23T01:21:57.981Z,8.59
2022-09-23T01:23:00.115Z,8.56
2022-09-23T01:23:41.469Z,8.49
2022-09-23T01:24:30.257Z,8.43
2022-09-23T01:25:23.372Z,8.28
2022-09-23T01:26:08.106Z,8.34
2022-09-23T01:27:01.002Z,8.38
2022-09-23T01:28:07.946Z,8.29
2022-09-23T01:29:09.280Z,8.39
2022-09-23T01:29:59.817Z,8.36
2022-09-23T01:30:37.849Z,8.05
2022-09-23T01:31:22.572Z,8.09
2022-09-23T01:32:16.149Z,7.91
2022-09-23T01:33:11.178Z,7.89
2022-09-23T01:33:56.640Z,8.08
2022-09-23T01:34:31.440Z,8.12
2022-09-23T01:35:38.592Z,8.24
2022-09-23T01:36:27.170Z,8.13
2022-09-23T01:37:20.872Z,8.09
2022-09-23T01:38:17.124Z,8.15
2022-09-23T01:39:07.922Z,8.15
2022-09-23T01:39:52.067Z,8.26
2022-09-23T01:40:40.262Z,8.15
2022-09-23T01:41:31.491Z,8.19
2022-09-23T01:42:17.438Z,8.15
2022-09-23T01:43:15.665Z,8.17
2022-09-23T01:44:04.143Z,8.08
2022-09-23T01:44:49.875Z,8.11
2022-09-23T01:45:37.485Z,8.18
2022-09-23T01:46:18.513Z,8.02
2022-09-23T01:47:17.525Z,8.12
2022-09-23T01:48:10.513Z,8.08
2022-09-23T01:48:47.264Z,7.95
2022-09-23T01:49:30.903Z,7.78
2022-09-23T01:50:26.908Z,7.74
2022-09-23T01:51:20.765Z,7.75
2022-09-23T01:51:59.863Z,7.73
2022-09-23T01:52:41.886Z,7.74
2022-09-23T01:53:24.103Z,7.76
2022-09-23T01:54:15.963Z,7.93
2022-09-23T01:55:27.150Z,8.13
2022-09-23T01:56:05.289Z,8.26
2022-09-23T01:56:47.538Z,8.23
2022-09-23T01:57:26.533Z,8.20
2022-09-23T01:58:23.595Z,8.20
2022-09-23T01:58:55.452Z,8.12
2022-09-23T01:59:47.137Z,8.24
2022-09-23T02:00:24.156Z,8.17
2022-09-23T02:01:07.724Z,8.07
2022-09-23T02:01:45.336Z,8.04
2022-09-23T02:02:44.298Z,7.96
2022-09-23T02:03:33.111Z,7.92
2022-09-23T02:04:15.447Z,7.96
2022-09-23T02:05:00.562Z,7.93
2022-09-23T02:05:45.005Z,7.84
2022-09-23T02:06:24.765Z,7.81
2022-09-23T02:07:06.158Z,8.02
2022-09-23T02:07:55.614Z,8.04
2022-09-23T02:08:30.755Z,7.92
2022-09-23T02:09:08.140Z,7.92
2022-09-23T02:09:43.986Z,7.90
2022-09-23T02:10:24.131Z,7.96
2022-09-23T02:11:04.597Z,8.12
2022-09-23T02:11:37.827Z,7.91
2022-09-23T02:12:17.296Z,7.95
2022-09-23T02:12:52.746Z,7.87
2022-09-23T02:13:43.135Z,7.96
2022-09-23T02:14:38.816Z,8.02
2022-09-23T02:15:16.389Z,7.93
2022-09-23T02:15:55.671Z,7.87
2022-09-23T02:16:39.528Z,7.89
2022-09-23T02:17:17.257Z,7.84
2022-09-23T02:17:59.169Z,7.77
2022-09-23T02:19:00.140Z,7.82
2022-09-23T02:19:45.794Z,7.81
2022-09-23T02:20:24.348Z,7.58
2022-09-23T02:21:02.714Z,7.59
2022-09-23T02:21:38.405Z,7.55
2022-09-23T02:22:22.723Z,7.65
2022-09-23T02:23:01.456Z,7.53
2022-09-23T02:23:40.125Z,7.49
2022-09-23T02:24:28.003Z,7.45
2022-09-23T02:25:00.056Z,7.50
2022-09-23T02:25:47.721Z,7.48
2022-09-23T02:26:27.743Z,7.49
2022-09-23T02:27:22.165Z,7.48
2022-09-23T02:27:57.161Z,7.57
2022-09-23T02:28:41.184Z,7.68
2022-09-23T02:29:26.966Z,7.79
2022-09-23T02:30:13.481Z,7.91
2022-09-23T02:30:56.250Z,7.83
2022-09-23T02:31:30.827Z,7.72
2022-09-23T02:32:23.772Z,7.72
2022-09-23T02:33:08.594Z,7.99
2022-09-23T02:33:53.330Z,7.81
2022-09-23T02:34:43.000Z,7.72
2022-09-23T02:35:32.868Z,7.97
2022-09-23T02:36:20.628Z,7.96
2022-09-23T02:37:21.002Z,8.01
2022-09-23T02:38:09.862Z,7.80
2022-09-23T02:38:51.155Z,7.78
2022-09-23T02:39:28.627Z,7.72
2022-09-23T02:40:12.704Z,7.67
2022-09-23T02:40:58.842Z,7.63
2022-09-23T02:41:39.082Z,7.68
2022-09-23T02:42:20.289Z,7.65
2022-09-23T02:43:33.868Z,7.78
2022-09-23T02:44:18.546Z,7.76
2022-09-23T02:44:50.753Z,7.65
2022-09-23T02:45:22.786Z,7.57
2022-09-23T02:45:56.214Z,7.58
2022-09-23T02:46:30.082Z,7.58
2022-09-23T02:47:02.341Z,7.51
2022-09-23T02:47:39.671Z,7.57
2022-09-23T02:48:21.338Z,7.70
2022-09-23T02:49:24.006Z,7.72
2022-09-23T02:49:58.283Z,7.65
2022-09-23T02:50:31.580Z,7.57
2022-09-23T02:51:04.496Z,7.49
2022-09-23T02:51:38.198Z,7.51
2022-09-23T02:52:13.675Z,7.50
2022-09-23T02:52:46.939Z,7.56
2022-09-23T02:53:19.067Z,7.51
2022-09-23T02:53:52.164Z,7.69
2022-09-23T02:54:29.375Z,7.62
2022-09-23T02:55:01.378Z,7.53
2022-09-23T02:55:33.546Z,7.47
2022-09-23T02:56:21.044Z,7.60
2022-09-23T02:56:53.309Z,7.52
2022-09-23T02:57:25.511Z,7.49
2022-09-23T02:58:01.053Z,7.39
2022-09-23T02:58:34.373Z,7.34
2022-09-23T02:59:08.926Z,7.32
2022-09-23T02:59:41.537Z,7.23
2022-09-23T03:00:14.013Z,7.31
2022-09-23T03:01:21.741Z,7.52
2022-09-23T03:02:04.569Z,7.65
2022-09-23T03:02:36.449Z,7.65
2022-09-23T03:03:20.571Z,7.55
2022-09-23T03:04:31.535Z,7.60
2022-09-23T03:05:31.529Z,7.61
2022-09-23T03:06:25.959Z,7.47
2022-09-23T03:07:19.168Z,7.59
2022-09-23T03:08:12.946Z,7.51
2022-09-23T03:09:02.285Z,7.42
2022-09-23T03:09:40.374Z,7.43
2022-09-23T03:10:22.597Z,7.48
2022-09-23T03:11:10.588Z,7.46
2022-09-23T03:11:50.954Z,7.50
2022-09-23T03:12:38.998Z,7.47
2022-09-23T03:13:17.123Z,7.39
2022-09-23T03:14:16.941Z,7.43
2022-09-23T03:14:54.489Z,7.30
2022-09-23T03:15:38.717Z,7.31
2022-09-23T03:16:13.326Z,7.31
2022-09-23T03:16:58.259Z,7.35
2022-09-23T03:17:54.934Z,7.25
2022-09-23T03:18:45.393Z,7.22
2022-09-23T03:19:33.858Z,7.28
2022-09-23T03:20:22.425Z,7.30
2022-09-23T03:21:33.873Z,7.20
2022-09-23T03:22:07.537Z,7.33
2022-09-23T03:22:49.563Z,7.30
2022-09-23T03:23:26.295Z,7.21
2022-09-23T03:24:07.385Z,7.21
2022-09-23T03:24:44.838Z,7.15
2022-09-23T03:25:21.875Z,7.25
2022-09-23T03:25:58.154Z,7.28
2022-09-23T03:26:34.806Z,7.22
2022-09-23T03:27:13.901Z,7.13
2022-09-23T03:27:45.907Z,7.13
2022-09-23T03:28:21.959Z,7.18
2022-09-23T03:28:54.599Z,7.15
2022-09-23T03:29:27.058Z,7.21
2022-09-23T03:29:59.560Z,7.18
2022-09-23T03:30:35.627Z,7.17
2022-09-23T03:31:08.368Z,6.99
2022-09-23T03:31:42.513Z,7.10
2022-09-23T03:32:17.344Z,7.17
2022-09-23T03:32:51.356Z,7.14
2022-09-23T03:33:28.904Z,7.18
2022-09-23T03:34:06.131Z,7.22
2022-09-23T03:34:41.985Z,7.20
2022-09-23T03:35:14.721Z,7.18
2022-09-23T03:36:11.594Z,7.15
2022-09-23T03:36:53.732Z,7.17
2022-09-23T03:37:37.669Z,7.24
2022-09-23T03:38:16.802Z,7.20
2022-09-23T03:38:52.822Z,7.09
2022-09-23T03:39:33.150Z,7.06
2022-09-23T03:40:15.836Z,7.04
2022-09-23T03:40:51.036Z,7.06
2022-09-23T03:41:39.252Z,7.28
2022-09-23T03:42:17.927Z,7.37
2022-09-23T03:42:50.220Z,7.25
2022-09-23T03:43:22.253Z,7.17
2022-09-23T03:43:57.751Z,7.16
2022-09-23T03:44:30.318Z,7.18
2022-09-23T03:45:09.297Z,7.18
2022-09-23T03:45:42.652Z,7.20
2022-09-23T03:46:18.396Z,7.21
2022-09-23T03:46:50.571Z,7.25
2022-09-23T03:47:26.095Z,7.31
2022-09-23T03:47:58.404Z,7.29
2022-09-23T03:48:30.165Z,7.28
2022-09-23T03:49:35.179Z,7.32
2022-09-23T03:50:07.465Z,7.42
2022-09-23T03:50:39.333Z,7.28
2022-09-23T03:51:21.996Z,7.33
2022-09-23T03:51:55.428Z,7.17
2022-09-23T03:52:27.667Z,7.40
2022-09-23T03:52:59.524Z,7.24
2022-09-23T03:53:31.432Z,7.24
2022-09-23T03:54:03.195Z,7.20
2022-09-23T03:54:35.087Z,7.20
2022-09-23T03:55:08.082Z,7.24
2022-09-23T03:55:40.567Z,7.26
2022-09-23T03:56:12.430Z,7.29
2022-09-23T03:56:44.253Z,7.28
2022-09-23T03:57:16.153Z,7.22
2022-09-23T03:57:48.797Z,7.14
2022-09-23T03:58:20.634Z,7.17
2022-09-23T03:58:52.533Z,7.20
2022-09-23T03:59:26.024Z,7.23
2022-09-23T03:59:57.951Z,7.22
2022-09-23T04:00:29.841Z,7.14
2022-09-23T04:01:01.775Z,7.11
2022-09-23T04:01:33.647Z,7.13
2022-09-23T04:02:07.700Z,7.17
2022-09-23T04:03:12.035Z,7.31
2022-09-23T04:03:44.389Z,7.21
2022-09-23T04:04:16.585Z,7.31
2022-09-23T04:04:48.555Z,7.22
2022-09-23T04:05:20.389Z,7.16
2022-09-23T04:05:52.337Z,7.11
2022-09-23T04:06:24.171Z,7.13
2022-09-23T04:06:56.614Z,7.18
2022-09-23T04:07:28.449Z,7.16
2022-09-23T04:08:00.484Z,7.15
2022-09-23T04:08:32.338Z,7.17
2022-09-23T04:09:04.323Z,7.15
2022-09-23T04:09:36.892Z,7.13
2022-09-23T04:10:10.056Z,7.15
2022-09-23T04:10:42.279Z,7.18
2022-09-23T04:11:14.349Z,7.09
2022-09-23T04:11:47.977Z,7.28
2022-09-23T04:12:19.981Z,7.17
2022-09-23T04:12:52.079Z,7.12
2022-09-23T04:13:24.011Z,7.06
2022-09-23T04:13:56.762Z,7.10
2022-09-23T04:14:28.652Z,7.00
2022-09-23T04:15:00.511Z,7.07
2022-09-23T04:15:32.336Z,7.09
2022-09-23T04:16:04.388Z,6.92
2022-09-23T04:16:36.387Z,6.84
2022-09-23T04:17:08.421Z,6.84
2022-09-23T04:17:40.242Z,6.83
2022-09-23T04:18:12.026Z,6.88
2022-09-23T04:18:43.825Z,6.90
2022-09-23T04:19:16.333Z,6.92
2022-09-23T04:19:48.161Z,7.00
2022-09-23T04:20:20.666Z,6.81
2022-09-23T04:20:57.697Z,6.96
2022-09-23T04:21:31.071Z,7.07
2022-09-23T04:22:03.775Z,6.99
2022-09-23T04:22:37.715Z,7.20
2022-09-23T04:23:09.728Z,7.06
2022-09-23T04:23:41.723Z,7.02
2022-09-23T04:24:14.691Z,6.97
2022-09-23T04:24:46.592Z,7.09
2022-09-23T04:25:18.474Z,7.30
2022-09-23T04:25:50.400Z,7.38
2022-09-23T04:26:22.316Z,7.27
2022-09-23T04:26:55.407Z,7.18
2022-09-23T04:27:27.224Z,7.13
2022-09-23T04:27:59.021Z,7.11
2022-09-23T04:28:30.932Z,7.12
2022-09-23T04:29:04.929Z,7.15
2022-09-23T04:29:36.859Z,7.34
2022-09-23T04:30:09.160Z,7.22
2022-09-23T04:30:43.750Z,7.35
2022-09-23T04:31:15.617Z,7.22
2022-09-23T04:31:48.641Z,7.15
2022-09-23T04:32:20.572Z,7.16
2022-09-23T04:32:53.439Z,7.30
2022-09-23T04:33:25.836Z,7.13
2022-09-23T04:33:58.155Z,7.09
2022-09-23T04:34:30.006Z,7.22
2022-09-23T04:35:01.909Z,7.17
2022-09-23T04:35:36.696Z,7.13
2022-09-23T04:36:11.846Z,7.10
2022-09-23T04:36:45.298Z,7.07
2022-09-23T04:37:17.145Z,7.09
2022-09-23T04:37:49.146Z,7.04
2022-09-23T04:38:22.000Z,7.08
2022-09-23T04:38:53.857Z,6.98
2022-09-23T04:39:25.708Z,7.17
2022-09-23T04:39:57.621Z,7.05
2022-09-23T04:40:29.520Z,7.05
2022-09-23T04:41:01.528Z,7.04
2022-09-23T04:41:33.452Z,6.97
2022-09-23T04:42:05.448Z,7.14
2022-09-23T04:42:37.276Z,7.07
2022-09-23T04:43:12.942Z,7.11
2022-09-23T04:43:46.105Z,7.17
2022-09-23T04:44:18.825Z,6.97
2022-09-23T04:44:50.636Z,6.90
2022-09-23T04:45:22.600Z,6.93
2022-09-23T04:46:02.144Z,7.00
2022-09-23T04:46:34.655Z,6.89
2022-09-23T04:47:06.622Z,6.86
2022-09-23T04:47:38.558Z,6.86
2022-09-23T04:48:12.092Z,6.88
2022-09-23T04:48:44.539Z,6.77
2022-09-23T04:49:16.625Z,6.88
2022-09-23T04:49:48.681Z,6.79
2022-09-23T04:50:20.695Z,6.78
2022-09-23T04:50:52.736Z,6.74
2022-09-23T04:51:26.564Z,6.94
2022-09-23T04:51:58.464Z,6.85
2022-09-23T04:52:31.299Z,6.87
2022-09-23T04:53:04.550Z,7.01
2022-09-23T04:53:38.595Z,6.98
2022-09-23T04:54:12.665Z,6.95
2022-09-23T04:54:44.430Z,6.91
2022-09-23T04:55:16.352Z,6.85
2022-09-23T04:55:48.214Z,6.86
2022-09-23T04:56:26.244Z,6.90
2022-09-23T04:56:58.043Z,6.85
2022-09-23T04:57:29.927Z,6.80
2022-09-23T04:58:01.688Z,6.86
2022-09-23T04:58:34.519Z,6.85
2022-09-23T04:59:07.048Z,6.88
2022-09-23T04:59:39.136Z,6.91
2022-09-23T05:00:12.465Z,6.88
2022-09-23T05:00:44.760Z,6.86
2022-09-23T05:01:28.060Z,7.11
2022-09-23T05:01:59.923Z,6.92
2022-09-23T05:02:32.105Z,6.82
2022-09-23T05:03:04.162Z,6.89
2022-09-23T05:03:36.323Z,6.95
2022-09-23T05:04:13.530Z,6.86
2022-09-23T05:04:45.311Z,6.85
2022-09-23T05:05:23.299Z,6.80
2022-09-23T05:05:59.863Z,6.79
2022-09-23T05:06:34.542Z,6.68
2022-09-23T05:07:06.590Z,6.73
2022-09-23T05:07:38.912Z,6.81
2022-09-23T05:08:10.696Z,6.80
2022-09-23T05:08:54.560Z,6.81
2022-09-23T05:09:26.516Z,6.79
2022-09-23T05:09:58.300Z,6.77
2022-09-23T05:10:30.115Z,6.82
2022-09-23T05:11:04.968Z,6.90
2022-09-23T05:11:36.751Z,6.67
2022-09-23T05:12:08.651Z,6.70
2022-09-23T05:12:40.500Z,6.66
2022-09-23T05:13:12.357Z,6.72
2022-09-23T05:13:46.413Z,6.95
2022-09-23T05:14:18.587Z,6.71
2022-09-23T05:14:50.640Z,6.72
2022-09-23T05:15:22.406Z,6.73
2022-09-23T05:16:01.247Z,6.89
2022-09-23T05:16:33.263Z,6.84
2022-09-23T05:17:06.045Z,6.83
2022-09-23T05:17:37.951Z,6.88
2022-09-23T05:18:09.859Z,6.91
2022-09-23T05:18:43.882Z,6.92
2022-09-23T05:19:15.657Z,6.88
2022-09-23T05:19:47.506Z,6.90
2022-09-23T05:20:19.260Z,6.89
2022-09-23T05:20:55.652Z,6.75
2022-09-23T05:21:32.212Z,6.71
2022-09-23T05:22:05.312Z,6.72
2022-09-23T05:22:37.747Z,6.88
2022-09-23T05:23:09.609Z,6.85
2022-09-23T05:23:42.619Z,6.81
2022-09-23T05:24:15.441Z,6.78
2022-09-23T05:24:47.232Z,6.83
2022-09-23T05:25:19.033Z,6.78
2022-09-23T05:26:02.040Z,7.06
2022-09-23T05:26:33.839Z,6.92
2022-09-23T05:27:07.784Z,6.95
2022-09-23T05:27:39.638Z,7.04
2022-09-23T05:28:11.526Z,7.17
2022-09-23T05:28:43.639Z,7.18
2022-09-23T05:29:15.445Z,7.09
2022-09-23T05:29:47.628Z,7.10
2022-09-23T05:30:19.647Z,7.12
2022-09-23T05:30:51.596Z,7.15
2022-09-23T05:31:25.958Z,7.19
2022-09-23T05:31:57.907Z,7.21
2022-09-23T05:32:29.878Z,7.39
2022-09-23T05:33:02.742Z,7.35
2022-09-23T05:33:36.335Z,7.30
2022-09-23T05:34:08.278Z,7.23
2022-09-23T05:34:40.189Z,7.22
2022-09-23T05:35:50.809Z,7.36
2022-09-23T05:36:23.729Z,7.43
2022-09-23T05:36:55.575Z,7.50
2022-09-23T05:37:27.348Z,7.38
2022-09-23T05:37:59.168Z,7.30
2022-09-23T05:38:31.945Z,7.30
2022-09-23T05:39:04.189Z,7.28
2022-09-23T05:39:36.713Z,7.29
2022-09-23T05:40:08.942Z,7.32
2022-09-23T05:40:40.799Z,7.27
2022-09-23T05:41:13.693Z,7.41
2022-09-23T05:41:45.844Z,7.39
2022-09-23T05:42:18.236Z,7.35
2022-09-23T05:42:52.428Z,7.41
2022-09-23T05:43:24.839Z,7.53
2022-09-23T05:43:57.250Z,7.52
2022-09-23T05:44:29.040Z,7.53
2022-09-23T05:45:00.922Z,7.50
2022-09-23T05:45:33.216Z,7.49
2022-09-23T05:46:19.634Z,7.55
2022-09-23T05:46:51.677Z,7.65
2022-09-23T05:47:23.509Z,7.63
2022-09-23T05:47:55.367Z,7.55
2022-09-23T05:48:27.154Z,7.49
2022-09-23T05:49:02.890Z,7.55
2022-09-23T05:49:57.982Z,7.58
2022-09-23T05:50:28.354Z,7.62
2022-09-23T05:51:00.675Z,7.72
2022-09-23T05:51:34.727Z,7.75
2022-09-23T05:52:06.573Z,7.78
2022-09-23T05:52:38.301Z,7.76
2022-09-23T05:53:10.120Z,7.78
2022-09-23T05:53:45.419Z,7.78
2022-09-23T05:54:17.206Z,7.85
2022-09-23T05:54:49.893Z,7.80
2022-09-23T05:55:21.700Z,7.92
2022-09-23T05:55:54.543Z,7.91
2022-09-23T05:56:28.247Z,7.99
2022-09-23T05:57:02.693Z,8.12
2022-09-23T05:57:36.699Z,7.84
2022-09-23T05:58:08.578Z,8.02
2022-09-23T05:58:40.628Z,7.86
2022-09-23T05:59:12.602Z,7.74
2022-09-23T05:59:47.645Z,7.61
2022-09-23T06:00:19.410Z,7.68
2022-09-23T06:00:52.108Z,7.99
2022-09-23T06:01:27.229Z,8.18
2022-09-23T06:01:59.866Z,8.31
2022-09-23T06:02:31.711Z,8.44
2022-09-23T06:03:05.038Z,8.42
2022-09-23T06:03:37.040Z,8.55
2022-09-23T06:04:12.715Z,8.68
2022-09-23T06:04:44.589Z,8.92
2022-09-23T06:05:16.418Z,9.21
2022-09-23T06:05:48.478Z,9.61
2022-09-23T06:06:24.736Z,9.94
2022-09-23T06:07:00.274Z,10.22
2022-09-23T06:07:34.699Z,10.75
2022-09-23T06:08:07.376Z,10.58
2022-09-23T06:08:39.627Z,10.59
2022-09-23T06:09:13.942Z,10.55
2022-09-23T06:09:45.855Z,10.51
2022-09-23T06:10:17.663Z,10.43
2022-09-23T06:10:54.456Z,10.35
2022-09-23T06:11:29.830Z,10.43
2022-09-23T06:12:01.953Z,10.69
2022-09-23T06:12:35.251Z,10.53
2022-09-23T06:13:07.367Z,10.48
2022-09-23T06:13:39.964Z,10.48
2022-09-23T06:14:14.695Z,10.48
2022-09-23T06:14:46.645Z,10.42
2022-09-23T06:15:18.715Z,10.45
2022-09-23T06:15:50.631Z,10.21
2022-09-23T06:16:22.618Z,10.24
2022-09-23T06:16:54.505Z,10.19
2022-09-23T06:17:26.280Z,10.20
2022-09-23T06:17:58.635Z,10.15
2022-09-23T06:18:30.415Z,10.07
2022-09-23T06:19:06.588Z,9.97
2022-09-23T06:19:38.733Z,9.90
2022-09-23T06:20:10.798Z,10.02
2022-09-23T06:20:42.654Z,10.07
2022-09-23T06:21:16.437Z,10.10
2022-09-23T06:21:49.726Z,10.08
2022-09-23T06:22:24.847Z,9.94
2022-09-23T06:23:09.954Z,10.10
2022-09-23T06:23:43.837Z,10.30
2022-09-23T06:24:19.120Z,10.49
2022-09-23T06:24:53.203Z,9.94
2022-09-23T06:25:25.035Z,9.66
2022-09-23T06:26:16.424Z,9.96
2022-09-23T06:26:48.372Z,10.29
2022-09-23T06:27:20.226Z,10.39
2022-09-23T06:27:55.966Z,10.24
2022-09-23T06:28:32.977Z,10.34
2022-09-23T06:29:12.049Z,10.48
2022-09-23T06:29:43.936Z,10.54
2022-09-23T06:30:17.308Z,10.46
2022-09-23T06:30:49.912Z,10.50
2022-09-23T06:31:21.686Z,10.57
2022-09-23T06:31:53.657Z,10.53
2022-09-23T06:32:25.877Z,10.63
2022-09-23T06:32:58.243Z,10.71
2022-09-23T06:33:36.721Z,10.67
2022-09-23T06:34:14.485Z,10.54
2022-09-23T06:34:51.690Z,10.71
2022-09-23T06:35:27.803Z,10.68
2022-09-23T06:36:01.063Z,10.65
2022-09-23T06:36:42.705Z,10.45
2022-09-23T06:37:20.300Z,10.62
2022-09-23T06:37:53.726Z,10.51
2022-09-23T06:38:26.961Z,10.70
2022-09-23T06:38:58.820Z,10.69
2022-09-23T06:39:31.033Z,10.72
2022-09-23T06:40:02.921Z,11.09
2022-09-23T06:40:35.500Z,11.18
2022-09-23T06:41:07.588Z,11.34
2022-09-23T06:42:06.325Z,11.27
2022-09-23T06:42:38.325Z,11.35
2022-09-23T06:43:10.138Z,11.44
2022-09-23T06:43:42.020Z,11.29
2022-09-23T06:44:14.922Z,11.40
2022-09-23T06:44:46.678Z,11.38
2022-09-23T06:45:18.442Z,11.34
2022-09-23T06:45:55.987Z,11.52
2022-09-23T06:46:27.942Z,11.45
2022-09-23T06:46:59.757Z,11.41
2022-09-23T06:47:31.520Z,11.55
2022-09-23T06:48:08.345Z,11.43
2022-09-23T06:48:45.399Z,11.55
2022-09-23T06:49:18.249Z,11.28
2022-09-23T06:49:51.608Z,11.01
2022-09-23T06:50:25.751Z,11.33
2022-09-23T06:51:05.212Z,11.54
2022-09-23T06:51:36.925Z,11.48
2022-09-23T06:52:09.074Z,11.67
2022-09-23T06:52:41.087Z,11.79
2022-09-23T06:53:12.830Z,11.68
2022-09-23T06:53:46.198Z,11.64
2022-09-23T06:54:18.092Z,10.99
2022-09-23T06:54:49.980Z,11.14
2022-09-23T06:55:27.909Z,11.55
2022-09-23T06:56:05.864Z,11.26
2022-09-23T06:56:39.721Z,11.42
2022-09-23T06:57:11.828Z,11.77
2022-09-23T06:57:44.623Z,11.61
2022-09-23T06:58:16.456Z,11.36
2022-09-23T06:58:48.763Z,11.61
2022-09-23T06:59:20.509Z,11.62
2022-09-23T06:59:52.182Z,11.50
2022-09-23T07:00:25.780Z,11.39
2022-09-23T07:01:09.322Z,11.55
2022-09-23T07:01:41.675Z,11.70
2022-09-23T07:02:14.178Z,11.78
2022-09-23T07:02:46.510Z,11.85
2022-09-23T07:03:18.460Z,11.73
2022-09-23T07:03:50.195Z,11.91
2022-09-23T07:04:24.114Z,11.71
2022-09-23T07:04:59.102Z,11.73
2022-09-23T07:05:30.868Z,11.83
2022-09-23T07:06:03.230Z,12.00
2022-09-23T07:06:35.256Z,11.82
2022-09-23T07:07:06.983Z,11.97
2022-09-23T07:07:39.388Z,11.91
2022-09-23T07:08:11.143Z,12.22
2022-09-23T07:08:44.965Z,12.14
2022-09-23T07:09:16.819Z,11.87
2022-09-23T07:09:48.768Z,11.95
2022-09-23T07:10:20.457Z,12.13
2022-09-23T07:10:59.545Z,11.80
2022-09-23T07:11:31.248Z,12.13
2022-09-23T07:12:03.269Z,12.44
2022-09-23T07:12:35.092Z,12.22
2022-09-23T07:13:06.862Z,12.05
2022-09-23T07:13:40.933Z,12.17
2022-09-23T07:14:14.012Z,12.60
2022-09-23T07:14:46.035Z,12.85
2022-09-23T07:15:17.789Z,12.92
2022-09-23T07:15:54.142Z,13.09
2022-09-23T07:16:26.082Z,12.93
2022-09-23T07:16:59.892Z,12.73
2022-09-23T07:17:31.719Z,12.40
2022-09-23T07:18:03.478Z,12.73
2022-09-23T07:18:37.335Z,13.18
2022-09-23T07:19:09.316Z,13.52
2022-09-23T07:19:41.130Z,13.49
2022-09-23T07:20:12.996Z,13.07
2022-09-23T07:20:45.880Z,14.01
2022-09-23T07:21:18.999Z,14.37
2022-09-23T07:21:50.773Z,14.91
2022-09-23T07:22:24.756Z,15.02
2022-09-23T07:22:56.897Z,15.00
2022-09-23T07:23:28.856Z,14.25
2022-09-23T07:24:00.708Z,14.35
2022-09-23T07:24:33.688Z,14.64
2022-09-23T07:25:06.195Z,15.04
2022-09-23T07:25:38.132Z,15.78
2022-09-23T07:26:09.937Z,16.53
2022-09-23T07:26:45.592Z,16.63
2022-09-23T07:27:20.035Z,16.88
2022-09-23T07:27:51.842Z,17.19
2022-09-23T07:28:24.041Z,17.78
2022-09-23T07:28:57.011Z,17.34
2022-09-23T07:29:31.737Z,16.62
2022-09-23T07:30:04.991Z,16.62
2022-09-23T07:30:49.758Z,16.14
2022-09-23T07:31:36.519Z,15.99
2022-09-23T07:32:14.227Z,16.17
2022-09-23T07:32:49.193Z,16.89
2022-09-23T07:33:31.579Z,17.14
2022-09-23T07:34:04.236Z,16.23
2022-09-23T07:34:36.437Z,16.60
2022-09-23T07:35:10.732Z,16.91
2022-09-23T07:35:42.994Z,16.92
2022-09-23T07:36:17.426Z,16.82
2022-09-23T07:36:49.279Z,16.63
2022-09-23T07:37:21.025Z,16.18
2022-09-23T07:37:52.827Z,15.88
2022-09-23T07:38:30.385Z,16.01
2022-09-23T07:39:03.667Z,15.99
2022-09-23T07:39:36.687Z,15.86
2022-09-23T07:40:09.498Z,15.52
2022-09-23T07:40:41.506Z,14.94
2022-09-23T07:41:17.741Z,14.76
2022-09-23T07:41:49.797Z,14.36
2022-09-23T07:42:21.824Z,14.28
2022-09-23T07:42:53.673Z,14.43
2022-09-23T07:43:29.994Z,14.65
2022-09-23T07:44:02.997Z,14.77
2022-09-23T07:44:34.971Z,14.28
2022-09-23T07:45:09.065Z,14.02
2022-09-23T07:45:43.538Z,13.98
2022-09-23T07:46:17.673Z,14.39
2022-09-23T07:46:49.858Z,14.25
2022-09-23T07:47:21.685Z,14.02
2022-09-23T07:47:55.417Z,14.31
2022-09-23T07:48:31.927Z,14.43
2022-09-23T07:49:06.073Z,14.58
2022-09-23T07:49:38.420Z,14.53
2022-09-23T07:50:13.342Z,14.53
2022-09-23T07:50:45.179Z,14.52
2022-09-23T07:51:20.269Z,14.64
2022-09-23T07:51:52.868Z,14.52
2022-09-23T07:52:24.725Z,14.21
2022-09-23T07:52:56.583Z,14.24
2022-09-23T07:53:28.595Z,14.46
2022-09-23T07:54:00.401Z,14.43
2022-09-23T07:54:32.666Z,14.47
2022-09-23T07:55:06.908Z,14.34
2022-09-23T07:55:38.619Z,14.08
2022-09-23T07:56:11.490Z,13.97
2022-09-23T07:56:44.174Z,14.31
2022-09-23T07:57:16.286Z,14.39
2022-09-23T07:57:48.329Z,14.54
2022-09-23T07:58:20.298Z,14.76
2022-09-23T07:59:02.190Z,15.01
2022-09-23T07:59:34.616Z,14.85
2022-09-23T08:00:07.207Z,14.94